createdAt,value
2018-05-17T00:00:30.238Z,18.00
2018-05-17T00:02:58.933Z,17.80
2018-05-17T00:05:27.813Z,17.73
2018-05-17T00:07:56.542Z,16.27
2018-05-17T00:10:25.235Z,13.80
2018-05-17T00:12:53.975Z,15.43
2018-05-17T00:15:22.668Z,15.60
2018-05-17T00:17:52.136Z,16.93
2018-05-17T00:20:20.860Z,17.13
2018-05-17T00:22:49.548Z,15.67
2018-05-17T00:25:18.265Z,14.97
2018-05-17T00:27:47.295Z,17.73
2018-05-17T00:30:16.023Z,17.90
2018-05-17T00:32:44.738Z,17.17
2018-05-17T00:35:13.597Z,15.03
2018-05-17T00:37:42.427Z,14.43
2018-05-17T00:40:11.240Z,16.27
2018-05-17T00:42:40.095Z,15.13
2018-05-17T00:45:08.855Z,15.33
2018-05-17T00:47:38.354Z,20.97
2018-05-17T00:50:07.182Z,18.87
2018-05-17T00:52:37.192Z,20.27
2018-05-17T00:55:06.024Z,17.60
2018-05-17T00:57:34.856Z,18.53
2018-05-17T01:00:03.687Z,15.20
2018-05-17T01:02:32.526Z,14.17
2018-05-17T01:05:01.218Z,16.60
2018-05-17T01:07:29.904Z,16.60
2018-05-17T01:09:58.597Z,16.30
2018-05-17T01:12:27.364Z,17.83
2018-05-17T01:14:56.734Z,17.57
2018-05-17T01:17:25.248Z,16.40
2018-05-17T01:19:54.740Z,16.17
2018-05-17T01:22:23.375Z,16.07
2018-05-17T01:24:52.600Z,17.87
2018-05-17T01:27:22.193Z,16.87
2018-05-17T01:29:51.212Z,15.67
2018-05-17T01:32:20.602Z,18.30
2018-05-17T01:34:49.966Z,17.03
2018-05-17T01:37:36.423Z,22.27
2018-05-17T01:40:05.982Z,22.83
2018-05-17T01:42:34.518Z,19.23
2018-05-17T01:45:03.188Z,17.50
2018-05-17T01:47:31.752Z,14.83
2018-05-17T01:50:00.477Z,19.13
2018-05-17T01:52:29.142Z,19.60
2018-05-17T01:54:58.755Z,19.60
2018-05-17T01:57:27.406Z,16.73
2018-05-17T01:59:56.908Z,17.70
2018-05-17T02:02:27.301Z,18.23
2018-05-17T02:04:55.874Z,17.37
2018-05-17T02:07:25.300Z,18.10
2018-05-17T02:09:54.192Z,16.40
2018-05-17T02:12:23.811Z,18.23
2018-05-17T02:14:52.516Z,19.00
2018-05-17T02:17:21.210Z,19.40
2018-05-17T02:19:50.577Z,15.50
2018-05-17T02:22:19.272Z,14.73
2018-05-17T02:24:48.895Z,16.00
2018-05-17T02:27:17.797Z,16.97
2018-05-17T02:29:47.402Z,15.77
2018-05-17T02:32:16.240Z,17.20
2018-05-17T02:34:45.073Z,18.07
2018-05-17T02:37:13.772Z,18.37
2018-05-17T02:39:42.465Z,20.63
2018-05-17T02:42:11.882Z,18.80
2018-05-17T02:44:41.300Z,19.80
2018-05-17T02:47:10.807Z,18.33
2018-05-17T02:49:39.642Z,17.53
2018-05-17T02:52:08.472Z,17.33
2018-05-17T02:54:37.304Z,17.27
2018-05-17T02:57:06.397Z,17.60
2018-05-17T02:59:35.708Z,16.20
2018-05-17T03:02:04.592Z,16.33
2018-05-17T03:04:34.207Z,19.30
2018-05-17T03:07:02.806Z,19.03
2018-05-17T03:09:31.548Z,16.70
2018-05-17T03:12:00.299Z,18.60
2018-05-17T03:14:29.141Z,16.57
2018-05-17T03:16:57.981Z,17.13
2018-05-17T03:19:26.673Z,18.77
2018-05-17T03:21:55.362Z,17.80
2018-05-17T03:24:24.775Z,19.20
2018-05-17T03:26:53.467Z,17.63
2018-05-17T03:29:22.138Z,16.27
2018-05-17T03:31:50.828Z,16.77
2018-05-17T03:34:19.608Z,16.77
2018-05-17T03:36:48.713Z,18.40
2018-05-17T03:39:17.465Z,19.20
2018-05-17T03:41:46.298Z,14.77
2018-05-17T03:44:14.993Z,18.03
2018-05-17T03:46:43.733Z,18.43
2018-05-17T03:49:13.389Z,19.80
2018-05-17T03:51:42.222Z,20.53
2018-05-17T03:54:11.783Z,17.37
2018-05-17T03:56:40.472Z,18.37
2018-05-17T03:59:09.311Z,20.37
2018-05-17T04:01:55.838Z,19.57
2018-05-17T04:04:42.947Z,23.20
2018-05-17T04:07:11.847Z,20.87
2018-05-17T04:09:40.538Z,20.30
2018-05-17T04:12:10.231Z,21.90
2018-05-17T04:14:39.843Z,19.57
2018-05-17T04:19:43.412Z,18.20
2018-05-17T04:22:12.244Z,21.40
2018-05-17T04:24:40.955Z,18.13
2018-05-17T04:27:09.712Z,19.00
2018-05-17T04:29:38.552Z,19.77
2018-05-17T04:32:07.289Z,25.37
2018-05-17T04:34:36.506Z,20.03
2018-05-17T04:37:05.228Z,23.93
2018-05-17T04:39:34.073Z,22.90
2018-05-17T04:42:02.831Z,21.70
2018-05-17T04:44:33.029Z,22.90
2018-05-17T04:47:01.724Z,23.00
2018-05-17T04:49:30.581Z,20.47
2018-05-17T04:51:59.416Z,21.23
2018-05-17T04:54:28.245Z,18.00
2018-05-17T04:56:57.761Z,21.87
2018-05-17T04:59:26.428Z,22.30
2018-05-17T05:01:55.848Z,23.53
2018-05-17T05:04:26.212Z,19.53
2018-05-17T05:06:54.879Z,21.07
2018-05-17T05:09:23.628Z,20.13
2018-05-17T05:11:52.341Z,25.73
2018-05-17T05:14:21.067Z,20.17
2018-05-17T05:16:49.897Z,19.43
2018-05-17T05:19:18.739Z,18.70
2018-05-17T05:21:47.557Z,21.40
2018-05-17T05:24:16.396Z,16.30
2018-05-17T05:26:45.423Z,16.50
2018-05-17T05:29:14.138Z,15.33
2018-05-17T05:31:42.852Z,16.67
2018-05-17T05:34:11.725Z,15.67
2018-05-17T05:36:40.422Z,15.60
2018-05-17T05:39:09.590Z,18.73
2018-05-17T05:41:38.345Z,16.33
2018-05-17T05:44:07.769Z,14.17
2018-05-17T05:46:37.271Z,16.43
2018-05-17T05:49:06.099Z,12.47
2018-05-17T05:51:35.714Z,13.80
2018-05-17T05:54:04.556Z,14.07
2018-05-17T05:56:33.298Z,14.63
2018-05-17T05:59:02.720Z,17.07
2018-05-17T06:01:32.223Z,13.90
2018-05-17T06:04:01.843Z,15.70
2018-05-17T06:06:31.441Z,19.17
2018-05-17T06:09:00.293Z,16.87
2018-05-17T06:11:28.858Z,16.70
2018-05-17T06:13:58.359Z,16.57
2018-05-17T06:16:27.045Z,13.40
2018-05-17T06:18:56.018Z,16.67
2018-05-17T06:21:25.444Z,16.30
2018-05-17T06:23:54.182Z,14.27
2018-05-17T06:26:23.106Z,18.03
2018-05-17T06:28:51.935Z,15.73
2018-05-17T06:31:20.852Z,23.57
2018-05-17T06:33:49.599Z,17.90
2018-05-17T06:36:18.431Z,14.63
2018-05-17T06:38:47.657Z,16.90
2018-05-17T06:41:16.608Z,17.40
2018-05-17T06:43:46.025Z,22.33
2018-05-17T06:46:15.491Z,18.40
2018-05-17T06:48:44.362Z,19.07
2018-05-17T06:51:12.876Z,21.57
2018-05-17T06:53:41.593Z,23.77
2018-05-17T06:56:10.386Z,17.83
2018-05-17T06:58:39.656Z,20.97
2018-05-17T07:01:08.603Z,20.63
2018-05-17T07:03:37.089Z,16.97
2018-05-17T07:06:06.580Z,21.03
2018-05-17T07:08:35.279Z,15.90
2018-05-17T07:11:04.048Z,21.47
2018-05-17T07:13:33.007Z,18.83
2018-05-17T07:16:02.502Z,20.30
2018-05-17T07:18:31.434Z,19.33
2018-05-17T07:20:59.934Z,19.30
2018-05-17T07:23:28.799Z,21.67
2018-05-17T07:25:58.142Z,18.77
2018-05-17T07:28:27.645Z,19.20
2018-05-17T07:30:57.252Z,19.40
2018-05-17T07:33:26.364Z,18.93
2018-05-17T07:35:55.035Z,20.17
2018-05-17T07:38:23.728Z,22.17
2018-05-17T07:40:52.523Z,27.00
2018-05-17T07:43:21.952Z,20.50
2018-05-17T07:45:51.559Z,22.17
2018-05-17T07:48:21.065Z,23.97
2018-05-17T07:50:51.417Z,21.80
2018-05-17T07:53:20.292Z,23.33
2018-05-17T07:55:48.929Z,22.73
2018-05-17T07:58:17.763Z,26.27
2018-05-17T08:00:46.592Z,26.13
2018-05-17T08:03:15.301Z,22.57
2018-05-17T08:05:44.456Z,22.73
2018-05-17T08:08:13.289Z,22.27
2018-05-17T08:10:42.122Z,25.13
2018-05-17T08:13:10.945Z,23.27
2018-05-17T08:15:39.591Z,24.03
2018-05-17T08:18:09.010Z,23.17
2018-05-17T08:20:37.722Z,28.20
2018-05-17T08:23:07.443Z,23.53
2018-05-17T08:25:36.097Z,25.27
2018-05-17T08:28:05.716Z,25.13
2018-05-17T08:30:34.550Z,23.57
2018-05-17T08:33:03.252Z,25.27
2018-05-17T08:35:31.957Z,26.73
2018-05-17T08:38:00.620Z,25.80
2018-05-17T08:40:29.285Z,25.60
2018-05-17T08:42:58.910Z,28.27
2018-05-17T08:45:27.609Z,27.43
2018-05-17T08:47:56.374Z,31.47
2018-05-17T08:50:25.915Z,30.93
2018-05-17T08:52:55.328Z,31.70
2018-05-17T08:55:24.016Z,34.27
2018-05-17T08:57:52.885Z,29.47
2018-05-17T09:00:21.698Z,32.73
2018-05-17T09:02:50.547Z,31.97
2018-05-17T09:05:19.183Z,33.17
2018-05-17T09:07:48.801Z,31.03
2018-05-17T09:10:17.515Z,31.60
2018-05-17T09:12:46.270Z,33.87
2018-05-17T09:15:15.101Z,34.03
2018-05-17T09:17:43.918Z,34.27
2018-05-17T09:20:12.774Z,32.67
2018-05-17T09:22:41.602Z,36.60
2018-05-17T09:25:10.420Z,35.97
2018-05-17T09:27:38.911Z,35.77
2018-05-17T09:30:07.702Z,35.07
2018-05-17T09:32:36.535Z,34.13
2018-05-17T09:35:05.367Z,34.47
2018-05-17T09:37:34.002Z,32.17
2018-05-17T09:40:02.900Z,30.37
2018-05-17T09:42:31.591Z,28.40
2018-05-17T09:45:01.010Z,29.67
2018-05-17T09:47:30.567Z,30.53
2018-05-17T09:49:59.343Z,32.60
2018-05-17T09:52:28.115Z,28.57
2018-05-17T09:54:57.639Z,30.40
2018-05-17T09:57:26.543Z,29.23
2018-05-17T09:59:57.140Z,28.00
2018-05-17T10:02:27.239Z,28.97
2018-05-17T10:04:56.073Z,31.67
2018-05-17T10:07:24.788Z,30.07
2018-05-17T10:09:53.480Z,32.30
2018-05-17T10:12:22.422Z,32.00
2018-05-17T10:14:51.115Z,29.50
2018-05-17T10:17:20.041Z,30.73
2018-05-17T10:19:48.751Z,28.43
2018-05-17T10:22:17.376Z,32.67
2018-05-17T10:24:46.065Z,32.53
2018-05-17T10:27:15.569Z,31.63
2018-05-17T10:29:44.294Z,28.33
2018-05-17T10:32:14.993Z,31.03
2018-05-17T10:34:43.703Z,30.13
2018-05-17T10:37:12.268Z,23.27
2018-05-17T10:39:41.061Z,27.20
2018-05-17T10:42:09.773Z,26.10
2018-05-17T10:44:38.558Z,24.17
2018-05-17T10:47:08.192Z,21.77
2018-05-17T10:49:37.815Z,19.60
2018-05-17T10:52:06.623Z,25.13
2018-05-17T10:54:35.369Z,23.30
2018-05-17T10:57:05.057Z,21.93
2018-05-17T10:59:33.649Z,25.63
2018-05-17T11:02:03.153Z,22.90
2018-05-17T11:04:32.765Z,24.77
2018-05-17T11:07:01.598Z,21.40
2018-05-17T11:09:31.217Z,24.43
2018-05-17T11:12:00.050Z,23.83
2018-05-17T11:14:28.882Z,24.40
2018-05-17T11:16:58.501Z,21.10
2018-05-17T11:19:28.315Z,23.23
2018-05-17T11:21:57.023Z,22.57
2018-05-17T11:24:25.784Z,20.67
2018-05-17T11:26:54.617Z,21.77
2018-05-17T11:29:23.309Z,22.07
2018-05-17T11:31:52.340Z,21.30
2018-05-17T11:34:21.113Z,20.00
2018-05-17T11:36:49.946Z,18.77
2018-05-17T11:39:18.973Z,22.07
2018-05-17T11:41:47.551Z,21.93
2018-05-17T11:44:16.245Z,20.27
2018-05-17T11:46:45.079Z,19.53
2018-05-17T11:49:13.897Z,19.73
2018-05-17T11:51:42.743Z,23.13
2018-05-17T11:54:12.799Z,22.17
2018-05-17T11:56:41.522Z,19.87
2018-05-17T11:59:11.514Z,20.60
2018-05-17T12:01:40.233Z,22.10
2018-05-17T12:04:11.032Z,23.13
2018-05-17T12:06:39.599Z,20.13
2018-05-17T12:09:09.058Z,20.80
2018-05-17T12:11:37.922Z,19.70
2018-05-17T12:14:07.138Z,17.83
2018-05-17T12:16:35.715Z,18.57
2018-05-17T12:19:05.993Z,20.50
2018-05-17T12:21:34.842Z,19.17
2018-05-17T12:24:03.536Z,18.03
2018-05-17T12:26:32.255Z,18.27
2018-05-17T12:29:01.872Z,15.87
2018-05-17T12:31:30.514Z,16.87
2018-05-17T12:33:59.378Z,15.27
2018-05-17T12:36:28.212Z,14.33
2018-05-17T12:38:56.816Z,15.80
2018-05-17T12:41:26.183Z,16.40
2018-05-17T12:43:54.904Z,15.93
2018-05-17T12:46:24.218Z,14.67
2018-05-17T12:48:52.964Z,17.07
2018-05-17T12:51:21.778Z,14.83
2018-05-17T12:53:50.300Z,14.17
2018-05-17T12:56:19.067Z,15.57
2018-05-17T12:58:47.941Z,14.43
2018-05-17T13:01:17.123Z,14.57
2018-05-17T13:03:45.840Z,14.43
2018-05-17T13:06:14.603Z,13.67
2018-05-17T13:08:43.348Z,13.50
2018-05-17T13:11:12.845Z,15.87
2018-05-17T13:13:41.679Z,14.43
2018-05-17T13:16:10.313Z,15.07
2018-05-17T13:18:39.932Z,14.07
2018-05-17T13:21:08.765Z,12.47
2018-05-17T13:23:37.526Z,13.13
2018-05-17T13:26:07.020Z,14.43
2018-05-17T13:28:35.731Z,15.33
2018-05-17T13:31:04.484Z,14.23
2018-05-17T13:33:33.319Z,15.27
2018-05-17T13:36:02.153Z,15.53
2018-05-17T13:38:31.240Z,15.77
2018-05-17T13:41:00.014Z,13.27
2018-05-17T13:43:29.697Z,16.20
2018-05-17T13:45:58.465Z,12.77
2018-05-17T13:48:27.296Z,13.57
2018-05-17T13:50:56.128Z,15.60
2018-05-17T13:53:24.964Z,14.57
2018-05-17T13:55:53.778Z,15.07
2018-05-17T13:58:23.020Z,20.57
2018-05-17T14:00:52.638Z,13.43
2018-05-17T14:03:21.473Z,16.27
2018-05-17T14:05:51.072Z,15.30
2018-05-17T14:08:19.921Z,16.23
2018-05-17T14:10:48.754Z,16.63
2018-05-17T14:13:17.448Z,16.90
2018-05-17T14:15:46.190Z,17.27
2018-05-17T14:18:15.841Z,14.30
2018-05-17T14:20:45.449Z,16.90
2018-05-17T14:23:14.403Z,16.10
2018-05-17T14:25:42.892Z,15.53
2018-05-17T14:28:11.759Z,18.40
2018-05-17T14:30:41.378Z,16.93
2018-05-17T14:33:10.210Z,15.07
2018-05-17T14:35:38.846Z,14.00
2018-05-17T14:38:08.370Z,14.23
2018-05-17T14:40:37.301Z,16.93
2018-05-17T14:43:06.057Z,14.60
2018-05-17T14:45:35.523Z,14.90
2018-05-17T14:48:05.169Z,14.43
2018-05-17T14:50:34.002Z,14.73
2018-05-17T14:53:03.525Z,14.57
2018-05-17T14:55:32.916Z,12.37
2018-05-17T14:58:01.684Z,13.73
2018-05-17T15:00:30.678Z,15.37
2018-05-17T15:02:59.543Z,12.77
2018-05-17T15:05:28.338Z,15.23
2018-05-17T15:07:57.204Z,14.70
2018-05-17T15:10:26.040Z,14.30
2018-05-17T15:12:54.734Z,15.20
2018-05-17T15:15:23.431Z,15.17
2018-05-17T15:17:52.855Z,14.80
2018-05-17T15:20:22.348Z,15.50
2018-05-17T15:22:52.957Z,17.97
2018-05-17T15:25:22.574Z,16.07
2018-05-17T15:27:51.404Z,17.43
2018-05-17T15:30:21.219Z,16.67
2018-05-17T15:32:49.928Z,14.83
2018-05-17T15:35:18.645Z,14.27
2018-05-17T15:37:47.271Z,14.00
2018-05-17T15:40:17.144Z,15.63
2018-05-17T15:42:45.835Z,15.53
2018-05-17T15:45:14.467Z,14.73
2018-05-17T15:47:43.240Z,14.13
2018-05-17T15:50:12.269Z,15.87
2018-05-17T15:52:41.094Z,15.93
2018-05-17T15:55:09.809Z,14.93
2018-05-17T15:57:38.528Z,15.80
2018-05-17T16:00:07.329Z,14.63
2018-05-17T16:02:37.217Z,15.07
2018-05-17T16:05:06.755Z,16.07
2018-05-17T16:07:36.124Z,16.47
2018-05-17T16:10:05.589Z,16.27
2018-05-17T16:12:34.387Z,14.87
2018-05-17T16:15:04.552Z,16.63
2018-05-17T16:17:34.701Z,16.17
2018-05-17T16:20:03.433Z,15.10
2018-05-17T16:22:32.908Z,14.67
2018-05-17T16:25:02.928Z,15.37
2018-05-17T16:27:33.207Z,14.70
2018-05-17T16:30:02.052Z,18.17
2018-05-17T16:32:31.553Z,14.57
2018-05-17T16:35:00.260Z,18.20
2018-05-17T16:37:28.984Z,14.80
2018-05-17T16:39:58.472Z,15.93
2018-05-17T16:42:28.784Z,17.13
2018-05-17T16:44:57.505Z,15.70
2018-05-17T16:47:26.150Z,16.17
2018-05-17T16:49:55.615Z,16.23
2018-05-17T16:52:24.350Z,17.17
2018-05-17T16:54:53.025Z,15.27
2018-05-17T16:57:21.716Z,16.10
2018-05-17T16:59:50.387Z,16.87
2018-05-17T17:02:20.594Z,15.47
2018-05-17T17:04:49.466Z,15.40
2018-05-17T17:07:18.259Z,16.50
2018-05-17T17:09:47.094Z,14.70
2018-05-17T17:12:15.795Z,17.13
2018-05-17T17:14:44.463Z,15.83
2018-05-17T17:17:13.463Z,14.90
2018-05-17T17:19:42.198Z,16.20
2018-05-17T17:22:10.920Z,16.90
2018-05-17T17:24:39.690Z,15.57
2018-05-17T17:27:09.174Z,16.53
2018-05-17T17:29:37.945Z,15.17
2018-05-17T17:32:07.486Z,15.87
2018-05-17T17:34:36.952Z,14.83
2018-05-17T17:37:06.101Z,15.20
2018-05-17T17:39:34.814Z,15.97
2018-05-17T17:42:03.682Z,15.97
2018-05-17T17:44:32.971Z,18.27
2018-05-17T17:47:01.738Z,16.40
2018-05-17T17:49:31.355Z,16.47
2018-05-17T17:52:01.108Z,16.47
2018-05-17T17:54:30.008Z,16.63
2018-05-17T17:56:58.834Z,17.43
2018-05-17T17:59:27.669Z,15.83
2018-05-17T18:01:56.475Z,15.63
2018-05-17T18:04:25.331Z,17.87
2018-05-17T18:06:53.905Z,17.03
2018-05-17T18:09:22.799Z,16.87
2018-05-17T18:11:51.637Z,15.60
2018-05-17T18:14:20.464Z,16.13
2018-05-17T18:16:49.173Z,17.00
2018-05-17T18:19:17.900Z,16.87
2018-05-17T18:21:46.764Z,16.60
2018-05-17T18:24:15.597Z,16.87
2018-05-17T18:26:45.217Z,17.07
2018-05-17T18:29:14.709Z,15.90
2018-05-17T18:31:43.381Z,16.37
2018-05-17T18:34:12.067Z,16.77
2018-05-17T18:36:41.082Z,16.93
2018-05-17T18:39:09.657Z,17.37
2018-05-17T18:41:38.407Z,17.00
2018-05-17T18:44:07.237Z,16.43
2018-05-17T18:46:35.980Z,17.47
2018-05-17T18:49:05.464Z,17.13
2018-05-17T18:51:34.839Z,17.03
2018-05-17T18:54:04.456Z,17.33
2018-05-17T18:56:33.956Z,17.27
2018-05-17T18:59:02.524Z,20.23
2018-05-17T19:01:31.971Z,18.53
2018-05-17T19:04:01.177Z,18.33
2018-05-17T19:06:30.071Z,18.93
2018-05-17T19:08:58.810Z,19.20
2018-05-17T19:11:27.538Z,19.97
2018-05-17T19:13:56.094Z,23.20
2018-05-17T19:16:25.564Z,20.40
2018-05-17T19:18:54.428Z,21.13
2018-05-17T19:21:23.223Z,21.67
2018-05-17T19:23:52.095Z,21.43
2018-05-17T19:26:22.301Z,20.97
2018-05-17T19:28:51.191Z,22.40
2018-05-17T19:31:20.009Z,22.33
2018-05-17T19:33:48.843Z,21.33
2018-05-17T19:36:17.636Z,24.57
2018-05-17T19:38:47.505Z,24.70
2018-05-17T19:41:16.253Z,24.33
2018-05-17T19:43:45.112Z,23.93
2018-05-17T19:46:13.847Z,26.57
2018-05-17T19:48:43.039Z,22.70
2018-05-17T19:51:11.819Z,22.43
2018-05-17T19:53:40.635Z,23.42
2018-05-17T19:56:09.394Z,22.93
2018-05-17T19:58:38.896Z,24.37
2018-05-17T20:01:07.730Z,22.97
2018-05-17T20:03:37.341Z,23.10
2018-05-17T20:06:06.958Z,21.93
2018-05-17T20:08:35.795Z,25.60
2018-05-17T20:11:04.543Z,23.03
2018-05-17T20:13:34.012Z,23.77
2018-05-17T20:16:02.880Z,24.97
2018-05-17T20:18:31.710Z,24.67
2018-05-17T20:21:01.216Z,37.50
2018-05-17T20:23:29.931Z,34.83
2018-05-17T20:25:59.062Z,32.43
2018-05-17T20:28:27.826Z,27.73
2018-05-17T20:30:57.455Z,27.50
2018-05-17T20:33:27.464Z,26.17
2018-05-17T20:35:56.288Z,25.73
2018-05-17T20:38:25.317Z,25.73
2018-05-17T20:40:54.026Z,26.27
2018-05-17T20:43:22.743Z,26.30
2018-05-17T20:45:51.486Z,27.47
2018-05-17T20:48:20.253Z,26.53
2018-05-17T20:50:48.948Z,27.53
2018-05-17T20:53:17.692Z,27.20
2018-05-17T20:55:46.553Z,25.90
2018-05-17T20:58:16.296Z,27.17
2018-05-17T21:00:45.766Z,26.53
2018-05-17T21:03:14.624Z,26.03
2018-05-17T21:05:43.456Z,26.37
2018-05-17T21:08:12.094Z,26.37
2018-05-17T21:10:41.316Z,24.93
2018-05-17T21:13:10.727Z,26.47
2018-05-17T21:15:41.317Z,24.53
2018-05-17T21:18:10.173Z,27.07
2018-05-17T21:20:39.043Z,26.30
2018-05-17T21:23:08.427Z,30.90
2018-05-17T21:25:37.636Z,26.73
2018-05-17T21:28:06.485Z,29.50
2018-05-17T21:30:35.711Z,30.93
2018-05-17T21:33:05.329Z,28.83
2018-05-17T21:35:34.161Z,28.77
2018-05-17T21:38:03.790Z,29.43
2018-05-17T21:40:32.491Z,28.00
2018-05-17T21:43:01.113Z,29.87
2018-05-17T21:45:30.674Z,30.77
2018-05-17T21:47:59.469Z,30.63
2018-05-17T21:50:28.344Z,30.60
2018-05-17T21:52:56.971Z,29.57
2018-05-17T21:55:26.244Z,31.37
2018-05-17T21:57:55.229Z,28.70
2018-05-17T22:00:24.754Z,27.17
2018-05-17T22:02:53.737Z,26.43
2018-05-17T22:05:22.517Z,29.90
2018-05-17T22:07:51.261Z,29.10
2018-05-17T22:10:19.948Z,28.07
2018-05-17T22:12:48.764Z,27.17
2018-05-17T22:15:17.640Z,25.90
2018-05-17T22:17:46.476Z,27.20
2018-05-17T22:20:15.305Z,29.70
2018-05-17T22:22:44.142Z,29.17
2018-05-17T22:25:12.852Z,32.43
2018-05-17T22:27:41.801Z,29.83
2018-05-17T22:30:10.515Z,30.20
2018-05-17T22:32:39.205Z,29.03
2018-05-17T22:35:08.826Z,28.00
2018-05-17T22:37:39.013Z,30.30
2018-05-17T22:40:07.733Z,31.90
2018-05-17T22:42:36.428Z,28.77
2018-05-17T22:45:05.405Z,29.23
2018-05-17T22:47:35.016Z,30.57
2018-05-17T22:50:04.726Z,32.00
2018-05-17T22:52:33.442Z,30.27
2018-05-17T22:55:02.287Z,32.30
2018-05-17T23:00:42.234Z,32.00
2018-05-17T23:03:11.764Z,31.13
2018-05-17T23:05:41.284Z,29.40
2018-05-17T23:08:10.017Z,28.67
2018-05-17T23:10:38.941Z,32.27
2018-05-17T23:13:08.953Z,30.37
2018-05-17T23:15:37.786Z,31.53
2018-05-17T23:18:06.619Z,30.50
2018-05-17T23:20:35.458Z,37.60
2018-05-17T23:23:04.289Z,32.73
2018-05-17T23:25:33.117Z,30.80
2018-05-17T23:28:01.946Z,35.10
2018-05-17T23:30:30.656Z,33.07
2018-05-17T23:32:59.401Z,30.50
2018-05-17T23:35:28.249Z,29.90
2018-05-17T23:37:58.455Z,30.13
2018-05-17T23:43:36.152Z,31.67
2018-05-17T23:46:05.850Z,32.67
2018-05-17T23:48:34.558Z,32.57
2018-05-17T23:51:03.225Z,30.97
2018-05-17T23:53:31.911Z,29.87
2018-05-17T23:56:00.591Z,31.07
2018-05-17T23:58:30.208Z,33.63
